Time;durP1;ratioP1;P1;durP2;ratioP2;P2;SDS_P1;SDS_P2;PMS_P1;PMS_P2;Temp;Humidity;BMP_temperature;BMP_pressure;BME280_temperature;BME280_humidity;BME280_pressure;Samples;Min_cycle;Max_cycle;Signal;HPM_P1;HPM_P2
2023/03/03 00:00:54;;;;;;;30.90;18.23;;;;;2.20;94078.00;;;;7402738;19;20196;-80
2023/03/03 00:03:29;;;;;;;35.87;17.70;;;;;2.10;94096.00;;;;7398787;19;20180;-79
2023/03/03 00:06:04;;;;;;;30.87;17.43;;;;;1.90;94085.00;;;;7401655;19;20132;-78
2023/03/03 00:08:39;;;;;;;31.97;18.27;;;;;1.80;94076.00;;;;7402377;19;20624;-78
2023/03/03 00:11:07;;;;;;;32.10;18.07;;;;;2.00;94090.00;;;;7400240;19;20133;-79
2023/03/03 00:13:54;;;;;;;31.87;19.17;;;;;2.00;94087.00;;;;7401661;19;20132;-80
2023/03/03 00:16:36;;;;;;;29.57;18.17;;;;;2.20;94085.00;;;;7400448;19;20161;-79
2023/03/03 00:19:16;;;;;;;30.50;18.13;;;;;2.10;94084.00;;;;7403817;19;20129;-78
2023/03/03 00:21:50;;;;;;;30.40;17.90;;;;;2.10;94086.00;;;;7395836;19;20599;-80
2023/03/03 00:24:35;;;;;;;36.40;19.33;;;;;1.90;94090.00;;;;7394502;19;20171;-79
2023/03/03 00:27:29;;;;;;;31.33;18.03;;;;;1.90;94088.00;;;;7396655;19;20136;-79
2023/03/03 00:30:15;;;;;;;28.67;17.03;;;;;1.60;94080.00;;;;7401373;19;20206;-82
2023/03/03 00:32:54;;;;;;;30.27;19.07;;;;;1.40;94085.00;;;;7400338;19;20141;-79
2023/03/03 00:35:34;;;;;;;36.53;19.10;;;;;1.40;94086.00;;;;7398452;19;20479;-79
2023/03/03 00:38:16;;;;;;;31.37;18.53;;;;;1.30;94088.00;;;;7401740;19;20611;-78
2023/03/03 00:40:51;;;;;;;32.83;18.30;;;;;1.00;94100.00;;;;7401522;19;20487;-78
2023/03/03 00:43:33;;;;;;;29.63;17.80;;;;;1.00;94097.00;;;;7401594;19;20132;-80
2023/03/03 00:46:07;;;;;;;29.63;18.70;;;;;0.80;94087.00;;;;7398535;19;20152;-78
2023/03/03 00:48:42;;;;;;;29.57;17.03;;;;;0.60;94080.00;;;;7401376;19;20576;-78
2023/03/03 00:51:31;;;;;;;32.23;17.20;;;;;0.60;94081.00;;;;7401240;19;20144;-78
2023/03/03 00:54:12;;;;;;;35.10;20.07;;;;;0.60;94084.00;;;;7396680;19;20173;-79
2023/03/03 00:56:40;;;;;;;32.87;18.33;;;;;0.40;94081.00;;;;7398217;19;20140;-80
2023/03/03 00:59:13;;;;;;;35.50;18.80;;;;;0.30;94089.00;;;;7398886;19;20133;-80
2023/03/03 01:01:41;;;;;;;37.90;19.60;;;;;0.20;94085.00;;;;7397667;19;20133;-80
2023/03/03 01:04:15;;;;;;;38.93;20.10;;;;;0.30;94080.00;;;;7399727;19;20156;-80
2023/03/03 01:06:49;;;;;;;34.77;19.87;;;;;0.40;94079.00;;;;7395985;19;20620;-80
2023/03/03 01:09:23;;;;;;;41.47;20.33;;;;;0.30;94079.00;;;;7400348;19;20123;-80
2023/03/03 01:11:51;;;;;;;34.50;19.37;;;;;0.10;94085.00;;;;7399229;19;20484;-78
2023/03/03 01:14:26;;;;;;;30.17;18.40;;;;;-0.10;94075.00;;;;7399099;19;20476;-79
2023/03/03 01:16:59;;;;;;;40.03;20.57;;;;;0.00;94074.00;;;;7398280;19;20161;-78
2023/03/03 01:19:33;;;;;;;33.63;18.23;;;;;0.10;94080.00;;;;7398943;19;20208;-79
2023/03/03 01:22:01;;;;;;;35.57;19.03;;;;;-0.10;94080.00;;;;7397013;19;20172;-78
2023/03/03 01:24:35;;;;;;;35.87;20.03;;;;;0.00;94076.00;;;;7397500;19;20132;-79
2023/03/03 01:27:10;;;;;;;35.60;19.30;;;;;-0.40;94081.00;;;;7397360;19;20479;-78
2023/03/03 01:29:44;;;;;;;38.37;20.87;;;;;-0.50;94083.00;;;;7400989;19;20590;-79
2023/03/03 01:32:11;;;;;;;37.27;19.50;;;;;-0.50;94075.00;;;;7400915;19;20129;-79
2023/03/03 01:34:45;;;;;;;39.47;20.50;;;;;-0.40;94076.00;;;;7399398;19;20129;-78
2023/03/03 01:37:13;;;;;;;39.23;21.47;;;;;-0.30;94081.00;;;;7397884;19;20129;-80
2023/03/03 01:39:54;;;;;;;41.70;21.87;;;;;-0.40;94080.00;;;;7398261;19;20153;-81
2023/03/03 01:42:28;;;;;;;36.67;20.93;;;;;-0.30;94085.00;;;;7396081;19;20139;-79
2023/03/03 01:45:27;;;;;;;41.07;21.57;;;;;-0.20;94075.00;;;;7399076;19;20143;-78
2023/03/03 01:48:18;;;;;;;34.30;19.00;;;;;-0.50;94074.00;;;;7399073;19;20151;-78
2023/03/03 01:50:56;;;;;;;41.50;22.70;;;;;-0.50;94074.00;;;;7397889;19;20172;-79
2023/03/03 01:53:45;;;;;;;39.87;21.80;;;;;-0.40;94081.00;;;;7397140;19;20232;-78
2023/03/03 01:56:19;;;;;;;36.03;19.70;;;;;-0.40;94075.00;;;;7396307;19;20366;-79
2023/03/03 01:59:10;;;;;;;40.37;20.73;;;;;-0.50;94069.00;;;;7397381;19;20156;-81
2023/03/03 02:01:37;;;;;;;45.30;22.80;;;;;-0.40;94063.00;;;;7394819;19;20156;-74
2023/03/03 02:04:18;;;;;;;39.23;21.07;;;;;-0.50;94059.00;;;;7390137;19;20910;-73
2023/03/03 02:06:52;;;;;;;39.93;22.00;;;;;-0.50;94054.00;;;;7391260;19;20605;-73
2023/03/03 02:09:32;;;;;;;46.50;23.73;;;;;-0.40;94053.00;;;;7394221;19;20192;-73
2023/03/03 02:12:11;;;;;;;40.37;22.07;;;;;-0.40;94053.00;;;;7395405;19;20871;-73
2023/03/03 02:14:45;;;;;;;42.10;21.57;;;;;-0.50;94051.00;;;;7396858;19;20160;-73
2023/03/03 02:17:19;;;;;;;43.37;23.47;;;;;-0.50;94058.00;;;;7394775;19;20132;-73
2023/03/03 02:20:13;;;;;;;40.80;22.43;;;;;-0.60;94053.00;;;;7396618;19;20135;-73
2023/03/03 02:22:58;;;;;;;37.73;22.47;;;;;-0.50;94048.00;;;;7387370;19;20606;-73
2023/03/03 02:25:55;;;;;;;43.30;22.97;;;;;-0.70;94038.00;;;;7391325;19;20617;-73
2023/03/03 02:28:32;;;;;;;48.27;23.10;;;;;-0.70;94049.00;;;;7394186;19;20163;-74
2023/03/03 02:31:12;;;;;;;43.77;24.33;;;;;-0.60;94054.00;;;;7394459;19;20140;-73
2023/03/03 02:33:48;;;;;;;45.60;23.33;;;;;-0.70;94051.00;;;;7395139;19;20518;-73
2023/03/03 02:36:32;;;;;;;46.37;24.33;;;;;-0.50;94051.00;;;;7392210;19;20580;-73
2023/03/03 02:39:23;;;;;;;52.77;25.83;;;;;-0.50;94048.00;;;;7394991;19;20140;-73
2023/03/03 02:42:05;;;;;;;49.27;23.33;;;;;-0.50;94058.00;;;;7393630;19;20125;-73
2023/03/03 02:44:39;;;;;;;49.40;24.30;;;;;-0.40;94052.00;;;;7393707;19;20128;-72
2023/03/03 02:47:13;;;;;;;56.87;26.13;;;;;-0.20;94046.00;;;;7393850;19;20622;-72
2023/03/03 02:49:42;;;;;;;46.80;23.70;;;;;-0.30;94049.00;;;;7395022;19;20518;-75
2023/03/03 02:52:17;;;;;;;45.83;25.37;;;;;-0.30;94047.00;;;;7392686;19;20184;-72
2023/03/03 02:54:45;;;;;;;48.00;24.87;;;;;-0.60;94052.00;;;;7385701;19;20872;-73
2023/03/03 02:57:18;;;;;;;50.27;25.50;;;;;-0.40;94053.00;;;;7385846;19;20627;-72
2023/03/03 02:59:52;;;;;;;49.87;24.17;;;;;-0.50;94053.00;;;;7395197;19;20146;-72
2023/03/03 03:02:26;;;;;;;50.53;25.90;;;;;-0.70;94055.00;;;;7391412;19;20205;-73
2023/03/03 03:05:07;;;;;;;46.63;24.47;;;;;-0.50;94056.00;;;;7393378;19;20151;-73
2023/03/03 03:07:35;;;;;;;53.50;26.03;;;;;-0.40;94057.00;;;;7391478;19;20618;-73
2023/03/03 03:10:10;;;;;;;52.00;26.43;;;;;-0.40;94059.00;;;;7386312;19;20140;-73
2023/03/03 03:12:37;;;;;;;48.70;26.30;;;;;-0.40;94060.00;;;;7394930;19;20132;-73
2023/03/03 03:15:11;;;;;;;47.27;26.20;;;;;-0.40;94059.00;;;;7395590;19;20140;-73
2023/03/03 03:17:45;;;;;;;46.53;24.10;;;;;-0.50;94061.00;;;;7392160;19;20218;-73
2023/03/03 03:20:19;;;;;;;47.97;24.90;;;;;-0.60;94055.00;;;;7393691;19;20595;-73
2023/03/03 03:22:47;;;;;;;48.90;26.07;;;;;-0.70;94056.00;;;;7388738;19;20515;-73
2023/03/03 03:25:21;;;;;;;48.10;24.93;;;;;-0.80;94055.00;;;;7388320;19;20656;-73
2023/03/03 03:27:50;;;;;;;45.47;24.27;;;;;-1.00;94056.00;;;;7394006;19;20169;-73
2023/03/03 03:30:25;;;;;;;48.13;24.67;;;;;-1.10;94058.00;;;;7394551;19;20141;-73
2023/03/03 03:32:53;;;;;;;49.63;24.77;;;;;-0.80;94052.00;;;;7393298;19;20164;-73
2023/03/03 03:35:27;;;;;;;47.97;25.43;;;;;-0.80;94059.00;;;;7392047;19;20461;-73
2023/03/03 03:37:54;;;;;;;54.40;27.50;;;;;-0.80;94054.00;;;;7392597;19;20278;-73
2023/03/03 03:40:28;;;;;;;50.90;27.00;;;;;-0.70;94061.00;;;;7393203;19;20148;-73
2023/03/03 03:42:56;;;;;;;54.50;26.47;;;;;-0.70;94059.00;;;;7391852;19;20395;-74
2023/03/03 03:45:29;;;;;;;55.57;28.17;;;;;-0.80;94063.00;;;;7392239;19;20131;-73
2023/03/03 03:47:58;;;;;;;51.57;25.90;;;;;-0.80;94063.00;;;;7390925;19;20460;-73
2023/03/03 03:50:32;;;;;;;51.63;27.97;;;;;-0.80;94068.00;;;;7393526;19;20117;-74
2023/03/03 03:53:07;;;;;;;53.00;26.37;;;;;-0.80;94062.00;;;;7393568;19;20135;-73
2023/03/03 03:55:40;;;;;;;51.90;26.77;;;;;-0.70;94060.00;;;;7390803;19;20486;-73
2023/03/03 03:58:11;;;;;;;54.93;27.47;;;;;-0.60;94060.00;;;;7388836;19;20557;-73
2023/03/03 04:00:46;;;;;;;50.47;25.77;;;;;-0.70;94058.00;;;;7391745;19;20156;-73
2023/03/03 04:03:26;;;;;;;56.33;28.47;;;;;-0.60;94062.00;;;;7388016;19;20218;-74
2023/03/03 04:06:00;;;;;;;54.40;28.37;;;;;-0.40;94065.00;;;;7391596;19;20153;-73
2023/03/03 04:08:34;;;;;;;55.77;28.53;;;;;-0.30;94055.00;;;;7393179;19;20491;-73
2023/03/03 04:11:08;;;;;;;53.87;28.53;;;;;-0.30;94055.00;;;;7391074;19;20157;-74
2023/03/03 04:13:43;;;;;;;53.67;26.90;;;;;-0.30;94064.00;;;;7392010;19;20148;-73
2023/03/03 04:16:16;;;;;;;52.50;28.30;;;;;-0.10;94056.00;;;;7390829;19;20599;-74
2023/03/03 04:18:44;;;;;;;62.17;28.43;;;;;0.00;94050.00;;;;7391116;19;20121;-73
2023/03/03 04:21:19;;;;;;;56.93;28.63;;;;;0.10;94057.00;;;;7392745;19;20220;-73
2023/03/03 04:23:52;;;;;;;51.80;25.97;;;;;0.00;94047.00;;;;7400475;19;20136;-73
2023/03/03 04:26:27;;;;;;;51.87;27.57;;;;;0.20;94057.00;;;;7398772;19;20137;-73
2023/03/03 04:29:02;;;;;;;50.87;27.83;;;;;0.30;94058.00;;;;7400001;19;20622;-76
2023/03/03 04:31:35;;;;;;;49.10;28.20;;;;;0.40;94060.00;;;;7398300;19;20128;-73
2023/03/03 04:34:03;;;;;;;47.57;26.27;;;;;0.40;94053.00;;;;7396379;19;20488;-73
2023/03/03 04:36:36;;;;;;;45.67;25.57;;;;;0.40;94060.00;;;;7394100;19;20153;-73
2023/03/03 04:39:11;;;;;;;50.07;26.43;;;;;0.60;94057.00;;;;7399661;19;20494;-75
2023/03/03 04:41:44;;;;;;;50.53;25.10;;;;;0.60;94055.00;;;;7399474;19;20133;-73
2023/03/03 04:44:12;;;;;;;47.00;25.50;;;;;0.60;94059.00;;;;7397807;19;20168;-73
2023/03/03 04:46:46;;;;;;;43.23;25.30;;;;;0.70;94058.00;;;;7396653;19;20141;-76
2023/03/03 04:49:20;;;;;;;40.60;23.30;;;;;0.60;94051.00;;;;7399408;19;20204;-76
2023/03/03 04:51:48;;;;;;;42.67;24.27;;;;;0.70;94044.00;;;;7398213;19;20636;-76
2023/03/03 04:54:16;;;;;;;44.10;24.63;;;;;0.80;94060.00;;;;7397656;19;20657;-75
2023/03/03 04:56:50;;;;;;;43.53;24.03;;;;;0.80;94068.00;;;;7389739;19;20158;-73
2023/03/03 04:59:23;;;;;;;42.00;23.70;;;;;0.70;94058.00;;;;7395909;19;20808;-73
2023/03/03 05:02:11;;;;;;;46.10;23.67;;;;;1.10;94056.00;;;;7391301;19;20667;-73
2023/03/03 05:04:45;;;;;;;43.13;24.93;;;;;1.10;94061.00;;;;7393472;19;20125;-73
2023/03/03 05:07:19;;;;;;;40.60;22.93;;;;;1.10;94065.00;;;;7391402;19;20159;-73
2023/03/03 05:09:53;;;;;;;42.33;23.50;;;;;1.10;94065.00;;;;7393495;19;20158;-76
2023/03/03 05:12:21;;;;;;;42.80;23.27;;;;;1.10;94063.00;;;;7394052;19;20155;-76
2023/03/03 05:15:01;;;;;;;43.40;24.43;;;;;1.20;94077.00;;;;7393186;19;20624;-73
2023/03/03 05:17:29;;;;;;;40.70;23.27;;;;;1.30;94066.00;;;;7393343;19;20151;-76
2023/03/03 05:20:04;;;;;;;44.07;23.90;;;;;1.30;94074.00;;;;7393862;19;20152;-76
2023/03/03 05:22:38;;;;;;;41.73;23.00;;;;;1.20;94071.00;;;;7392494;19;20144;-76
2023/03/03 05:25:12;;;;;;;39.33;23.60;;;;;1.20;94078.00;;;;7393197;19;20140;-76
2023/03/03 05:27:46;;;;;;;45.13;24.13;;;;;1.20;94069.00;;;;7395002;19;20132;-76
2023/03/03 05:30:14;;;;;;;40.20;23.33;;;;;1.10;94082.00;;;;7392552;19;20172;-76
2023/03/03 05:32:48;;;;;;;41.70;24.37;;;;;1.20;94084.00;;;;7390705;19;20779;-76
2023/03/03 05:35:22;;;;;;;38.13;22.90;;;;;1.20;94076.00;;;;7391450;19;20593;-76
2023/03/03 05:37:59;;;;;;;43.40;23.20;;;;;1.20;94082.00;;;;7394279;19;20135;-76
2023/03/03 05:40:33;;;;;;;44.33;22.23;;;;;1.20;94084.00;;;;7394224;19;20485;-76
2023/03/03 05:43:07;;;;;;;37.77;21.00;;;;;0.90;94081.00;;;;7393779;19;20196;-76
2023/03/03 05:45:41;;;;;;;36.83;23.33;;;;;0.80;94061.00;;;;7382605;19;20157;-76
2023/03/03 05:48:09;;;;;;;48.07;25.50;;;;;0.80;94092.00;;;;7395764;19;20153;-76
2023/03/03 05:50:42;;;;;;;44.03;24.93;;;;;1.00;94088.00;;;;7388933;19;20125;-76
2023/03/03 05:53:16;;;;;;;42.27;23.67;;;;;0.90;94092.00;;;;7393441;19;20139;-76
2023/03/03 05:55:51;;;;;;;36.17;21.17;;;;;0.80;94092.00;;;;7392733;19;20554;-76
2023/03/03 05:58:19;;;;;;;41.73;23.83;;;;;0.90;94100.00;;;;7395555;19;20132;-76
2023/03/03 06:00:52;;;;;;;41.20;24.30;;;;;1.00;94104.00;;;;7396245;19;20141;-76
2023/03/03 06:03:33;;;;;;;40.53;24.20;;;;;1.00;94096.00;;;;7392448;19;20184;-76
2023/03/03 06:06:08;;;;;;;39.40;22.63;;;;;1.10;94095.00;;;;7393515;19;20155;-76
2023/03/03 06:08:42;;;;;;;37.03;21.60;;;;;0.90;94108.00;;;;7396712;19;20124;-76
2023/03/03 06:11:11;;;;;;;42.23;22.43;;;;;0.90;94103.00;;;;7395490;19;20141;-73
2023/03/03 06:13:45;;;;;;;31.43;19.03;;;;;0.90;94100.00;;;;7396091;19;20129;-74
2023/03/03 06:16:20;;;;;;;33.50;18.70;;;;;0.70;94105.00;;;;7393050;19;20144;-74
2023/03/03 06:18:47;;;;;;;34.27;19.60;;;;;0.70;94111.00;;;;7394776;19;20160;-74
2023/03/03 06:21:22;;;;;;;35.70;20.37;;;;;0.70;94120.00;;;;7393841;19;20134;-74
2023/03/03 06:23:49;;;;;;;34.47;20.73;;;;;0.70;94115.00;;;;7393955;19;20224;-74
2023/03/03 06:26:24;;;;;;;40.27;22.00;;;;;0.70;94114.00;;;;7395138;19;20139;-74
2023/03/03 06:28:54;;;;;;;38.03;22.03;;;;;0.60;94127.00;;;;7397014;19;20133;-74
2023/03/03 06:31:28;;;;;;;40.57;24.17;;;;;0.80;94126.00;;;;7394128;19;20144;-74
2023/03/03 06:33:55;;;;;;;38.67;24.07;;;;;0.90;94124.00;;;;7397398;19;20196;-74
2023/03/03 06:36:30;;;;;;;48.17;26.20;;;;;0.90;94128.00;;;;7393527;19;20144;-74
2023/03/03 06:38:57;;;;;;;40.57;23.30;;;;;1.00;94135.00;;;;7394847;19;20133;-74
2023/03/03 06:41:32;;;;;;;46.10;25.83;;;;;1.00;94128.00;;;;7394958;19;20148;-74
2023/03/03 06:43:59;;;;;;;39.20;23.83;;;;;1.10;94131.00;;;;7392190;19;20132;-74
2023/03/03 06:46:34;;;;;;;44.37;24.80;;;;;1.40;94130.00;;;;7393012;19;20514;-75
2023/03/03 06:49:02;;;;;;;40.00;24.37;;;;;1.40;94138.00;;;;7395034;19;20157;-76
2023/03/03 06:51:38;;;;;;;42.30;23.33;;;;;1.50;94139.00;;;;7395267;19;20159;-76
2023/03/03 06:54:18;;;;;;;44.37;25.63;;;;;1.50;94146.00;;;;7396462;19;20136;-76
2023/03/03 06:56:59;;;;;;;46.73;26.13;;;;;1.70;94145.00;;;;7392973;19;20125;-76
2023/03/03 06:59:27;;;;;;;43.37;26.17;;;;;1.70;94145.00;;;;7394483;19;20724;-76
2023/03/03 07:02:16;;;;;;;51.27;26.43;;;;;1.40;94153.00;;;;7393375;19;20599;-76
2023/03/03 07:04:52;;;;;;;40.77;25.13;;;;;1.60;94160.00;;;;7394331;19;20571;-75
2023/03/03 07:07:26;;;;;;;44.67;26.73;;;;;1.60;94159.00;;;;7391846;19;20120;-75
2023/03/03 07:09:55;;;;;;;43.50;25.80;;;;;1.60;94160.00;;;;7395289;19;20127;-75
2023/03/03 07:12:30;;;;;;;44.13;25.70;;;;;1.40;94165.00;;;;7393023;19;20136;-75
2023/03/03 07:15:30;;;;;;;46.77;26.23;;;;;1.40;94165.00;;;;7395666;19;20146;-75
2023/03/03 07:17:58;;;;;;;49.50;25.93;;;;;1.40;94163.00;;;;7393696;19;20136;-75
2023/03/03 07:20:37;;;;;;;41.63;23.57;;;;;1.40;94164.00;;;;7389786;19;20127;-75
2023/03/03 07:23:23;;;;;;;34.37;20.63;;;;;1.50;94170.00;;;;7392813;19;20137;-75
2023/03/03 07:25:51;;;;;;;35.73;20.10;;;;;1.50;94169.00;;;;7392129;19;20128;-74
2023/03/03 07:28:31;;;;;;;41.17;28.00;;;;;1.70;94183.00;;;;7393627;19;20512;-75
2023/03/03 07:30:59;;;;;;;37.23;22.23;;;;;1.90;94184.00;;;;7394209;19;20126;-75
2023/03/03 07:33:43;;;;;;;41.70;23.57;;;;;1.90;94190.00;;;;7396406;19;20135;-76
2023/03/03 07:36:29;;;;;;;42.23;22.67;;;;;1.90;94186.00;;;;7392370;19;20484;-76
2023/03/03 07:39:28;;;;;;;36.13;20.57;;;;;1.70;94183.00;;;;7393511;19;20152;-76
2023/03/03 07:42:26;;;;;;;42.60;24.17;;;;;2.00;94179.00;;;;7392067;19;20654;-76
2023/03/03 07:44:57;;;;;;;42.07;24.27;;;;;2.10;94193.00;;;;7391195;19;20168;-76
2023/03/03 07:47:35;;;;;;;36.47;22.00;;;;;2.10;94192.00;;;;7383051;19;20139;-76
2023/03/03 07:50:17;;;;;;;35.00;20.53;;;;;2.20;94182.00;;;;7392085;19;20132;-75
2023/03/03 07:52:58;;;;;;;38.20;22.63;;;;;2.30;94194.00;;;;7392050;19;20149;-75
2023/03/03 07:55:34;;;;;;;32.93;20.30;;;;;2.40;94187.00;;;;7391916;19;20128;-75
2023/03/03 07:58:23;;;;;;;33.10;20.07;;;;;2.70;94190.00;;;;7400041;19;20154;-75
2023/03/03 08:01:38;;;;;;;37.93;23.07;;;;;2.90;94192.00;;;;7397239;19;20132;-75
2023/03/03 08:04:34;;;;;;;38.20;22.73;;;;;3.00;94199.00;;;;7394426;19;20232;-75
2023/03/03 08:07:02;;;;;;;41.50;24.87;;;;;2.90;94206.00;;;;7398482;19;20155;-74
2023/03/03 08:09:41;;;;;;;41.10;25.37;;;;;3.10;94204.00;;;;7399892;19;20152;-75
2023/03/03 08:12:09;;;;;;;40.83;25.37;;;;;3.10;94210.00;;;;7398268;19;20474;-75
2023/03/03 08:14:43;;;;;;;37.77;21.03;;;;;3.00;94208.00;;;;7398774;19;20228;-75
2023/03/03 08:17:30;;;;;;;35.10;21.60;;;;;3.00;94208.00;;;;7398897;19;20149;-75
2023/03/03 08:20:30;;;;;;;35.57;23.07;;;;;3.10;94213.00;;;;7398163;19;20145;-75
2023/03/03 08:23:03;;;;;;;40.30;24.43;;;;;3.30;94211.00;;;;7393006;19;20511;-76
2023/03/03 08:25:38;;;;;;;41.20;23.83;;;;;3.30;94214.00;;;;7394202;19;20168;-76
2023/03/03 08:28:13;;;;;;;41.07;23.90;;;;;3.70;94208.00;;;;7395570;19;20587;-76
2023/03/03 08:30:47;;;;;;;46.47;25.07;;;;;3.60;94206.00;;;;7394482;19;20129;-76
2023/03/03 08:33:41;;;;;;;42.60;24.03;;;;;3.60;94205.00;;;;7398201;19;20156;-76
2023/03/03 08:36:15;;;;;;;35.07;21.07;;;;;3.40;94205.00;;;;7396194;19;20140;-76
2023/03/03 08:38:42;;;;;;;35.83;21.43;;;;;3.60;94196.00;;;;7399923;19;20132;-77
2023/03/03 08:41:16;;;;;;;35.60;20.73;;;;;4.30;94199.00;;;;7390236;19;20170;-76
2023/03/03 08:43:45;;;;;;;32.90;20.20;;;;;4.30;94193.00;;;;7390410;19;20137;-76
2023/03/03 08:46:18;;;;;;;30.63;19.90;;;;;4.70;94200.00;;;;7393511;19;20148;-77
2023/03/03 08:48:46;;;;;;;34.40;20.77;;;;;4.50;94198.00;;;;7391915;19;20551;-77
2023/03/03 08:51:21;;;;;;;35.73;19.57;;;;;4.60;94198.00;;;;7396897;19;20156;-76
2023/03/03 08:53:48;;;;;;;31.83;20.50;;;;;5.20;94201.00;;;;7396241;19;20145;-75
2023/03/03 08:56:22;;;;;;;37.20;21.77;;;;;5.70;94194.00;;;;7386760;19;20140;-76
2023/03/03 08:58:57;;;;;;;34.17;21.07;;;;;5.60;94194.00;;;;7396922;19;20592;-76
2023/03/03 09:01:31;;;;;;;34.57;20.50;;;;;6.20;94195.00;;;;7396682;19;20160;-76
2023/03/03 09:04:12;;;;;;;36.47;21.63;;;;;6.10;94201.00;;;;7393694;19;20473;-75
2023/03/03 09:06:47;;;;;;;37.20;20.10;;;;;6.60;94202.00;;;;7393989;19;20141;-75
2023/03/03 09:09:21;;;;;;;30.37;20.40;;;;;7.10;94203.00;;;;7394658;19;20153;-75
2023/03/03 09:11:58;;;;;;;31.20;19.83;;;;;7.50;94209.00;;;;7397710;19;20503;-75
2023/03/03 09:14:33;;;;;;;29.63;19.67;;;;;7.50;94206.00;;;;7396191;19;20171;-75
2023/03/03 09:17:21;;;;;;;30.60;20.47;;;;;7.70;94209.00;;;;7395851;19;20150;-74
2023/03/03 09:19:49;;;;;;;28.35;19.20;;;;;8.00;94209.00;;;;7384779;19;20224;-75
2023/03/03 09:22:26;;;;;;;31.33;20.10;;;;;8.50;94213.00;;;;7393764;19;20132;-75
2023/03/03 09:24:57;;;;;;;31.75;19.60;;;;;8.60;94218.00;;;;7392509;19;20141;-75
2023/03/03 09:27:36;;;;;;;30.25;20.27;;;;;8.40;94225.00;;;;7396819;19;20615;-75
2023/03/03 09:30:38;;;;;;;29.40;19.48;;;;;8.20;94224.00;;;;7393309;19;20175;-76
2023/03/03 09:33:24;;;;;;;25.98;18.33;;;;;8.00;94230.00;;;;7396855;19;20137;-77
2023/03/03 09:36:21;;;;;;;30.85;18.70;;;;;8.90;94226.00;;;;7393894;19;20576;-76
2023/03/03 09:38:49;;;;;;;29.55;19.05;;;;;8.70;94234.00;;;;7396323;19;20133;-77
2023/03/03 09:41:28;;;;;;;32.35;19.20;;;;;8.70;94231.00;;;;7395970;19;20137;-76
2023/03/03 09:44:16;;;;;;;31.80;18.95;;;;;8.80;94244.00;;;;7391341;19;20710;-74
2023/03/03 09:47:22;;;;;;;30.02;19.35;;;;;8.40;94243.00;;;;7394046;19;20487;-74
2023/03/03 09:50:23;;;;;;;28.05;18.55;;;;;9.00;94241.00;;;;7397305;19;20120;-74
2023/03/03 09:53:06;;;;;;;29.58;19.42;;;;;9.20;94232.00;;;;7395243;19;20121;-73
2023/03/03 09:56:19;;;;;;;33.15;19.95;;;;;10.10;94237.00;;;;7390419;19;20152;-74
2023/03/03 09:59:26;;;;;;;29.95;18.38;;;;;10.40;94231.00;;;;7396273;19;20129;-74
2023/03/03 10:02:49;;;;;;;26.77;18.98;;;;;11.40;94226.00;;;;7392406;19;20157;-74
2023/03/03 10:05:43;;;;;;;31.95;20.00;;;;;12.00;94226.00;;;;7392666;19;20129;-74
2023/03/03 10:08:53;;;;;;;26.10;18.35;;;;;12.40;94225.00;;;;7394856;19;20137;-75
2023/03/03 10:11:32;;;;;;;28.08;18.88;;;;;13.50;94225.00;;;;7392329;19;20161;-74
2023/03/03 10:14:30;;;;;;;31.83;19.95;;;;;13.20;94237.00;;;;7392427;19;20141;-74
2023/03/03 10:17:22;;;;;;;27.45;18.98;;;;;13.60;94236.00;;;;7390172;19;20161;-75
2023/03/03 10:20:27;;;;;;;27.85;19.67;;;;;14.20;94231.00;;;;7391258;19;20632;-76
2023/03/03 10:23:33;;;;;;;31.67;19.45;;;;;13.50;94243.00;;;;7391713;19;20137;-75
2023/03/03 10:26:31;;;;;;;27.75;18.85;;;;;14.20;94241.00;;;;7391797;19;20144;-75
2023/03/03 10:29:41;;;;;;;26.98;19.40;;;;;13.00;94252.00;;;;7395139;19;20135;-75
2023/03/03 10:32:27;;;;;;;28.83;19.85;;;;;12.50;94255.00;;;;7392751;19;20240;-75
2023/03/03 10:35:16;;;;;;;27.92;18.73;;;;;11.80;94261.00;;;;7396320;19;20511;-75
2023/03/03 10:37:59;;;;;;;27.58;19.23;;;;;12.80;94269.00;;;;7393133;19;20196;-74
2023/03/03 10:40:51;;;;;;;25.15;19.67;;;;;13.30;94268.00;;;;7389000;19;20140;-75
2023/03/03 10:43:39;;;;;;;28.83;19.70;;;;;14.30;94260.00;;;;7393302;19;20598;-75
2023/03/03 10:46:46;;;;;;;25.67;19.42;;;;;14.30;94262.00;;;;7391897;19;20608;-75
2023/03/03 10:49:38;;;;;;;25.98;19.80;;;;;14.00;94261.00;;;;7389962;19;20141;-75
2023/03/03 10:52:32;;;;;;;29.08;20.00;;;;;13.40;94274.00;;;;7394676;19;20137;-74
2023/03/03 10:55:26;;;;;;;28.83;20.67;;;;;12.20;94267.00;;;;7395215;19;20592;-75
2023/03/03 10:58:21;;;;;;;29.15;19.77;;;;;10.90;94284.00;;;;7395461;19;20121;-74
2023/03/03 11:01:21;;;;;;;30.60;21.45;;;;;11.50;94269.00;;;;7393592;19;20133;-74
2023/03/03 11:04:23;;;;;;;31.00;20.05;;;;;11.70;94283.00;;;;7390559;19;20161;-75
2023/03/03 11:07:25;;;;;;;27.70;19.85;;;;;12.30;94277.00;;;;7390449;19;20408;-75
2023/03/03 11:10:21;;;;;;;28.30;20.27;;;;;12.00;94279.00;;;;7384768;19;20248;-75
2023/03/03 11:13:10;;;;;;;26.42;20.13;;;;;12.70;94261.00;;;;7392791;19;20251;-76
2023/03/03 11:16:01;;;;;;;29.05;18.95;;;;;13.10;94260.00;;;;7392727;19;20125;-76
2023/03/03 11:18:52;;;;;;;25.23;19.23;;;;;13.00;94258.00;;;;7394001;19;20139;-76
2023/03/03 11:21:37;;;;;;;31.63;20.60;;;;;14.80;94256.00;;;;7392421;19;20590;-75
2023/03/03 11:24:37;;;;;;;28.42;19.95;;;;;14.30;94267.00;;;;7391084;19;20208;-76
2023/03/03 11:27:23;;;;;;;23.73;18.58;;;;;14.60;94260.00;;;;7391754;19;20745;-76
2023/03/03 11:30:21;;;;;;;26.70;19.40;;;;;15.50;94257.00;;;;7389538;19;20125;-75
2023/03/03 11:33:18;;;;;;;27.13;19.73;;;;;14.30;94266.00;;;;7389670;19;20163;-75
2023/03/03 11:36:26;;;;;;;27.58;20.17;;;;;15.50;94264.00;;;;7392443;19;20120;-75
2023/03/03 11:39:04;;;;;;;29.33;19.40;;;;;16.00;94260.00;;;;7389569;19;20180;-75
2023/03/03 11:41:46;;;;;;;27.98;20.38;;;;;16.10;94261.00;;;;7388996;19;20176;-75
2023/03/03 11:44:51;;;;;;;27.08;20.42;;;;;15.30;94278.00;;;;7390206;19;20154;-74
2023/03/03 11:47:57;;;;;;;28.00;20.88;;;;;14.00;94283.00;;;;7388888;19;20136;-75
2023/03/03 11:50:39;;;;;;;27.88;19.15;;;;;13.60;94290.00;;;;7387099;19;20133;-74
2023/03/03 11:53:50;;;;;;;25.52;19.00;;;;;12.60;94284.00;;;;7391540;19;20160;-74
2023/03/03 11:56:33;;;;;;;29.55;19.52;;;;;10.80;94289.00;;;;7388975;19;21949;-76
2023/03/03 11:59:03;;;;;;;27.83;18.88;;;;;9.90;94279.00;;;;7387950;19;20597;-74
2023/03/03 12:01:47;;;;;;;31.00;20.35;;;;;10.90;94271.00;;;;7391198;19;20141;-74
2023/03/03 12:04:35;;;;;;;33.17;20.20;;;;;10.50;94259.00;;;;7381987;19;20696;-75
2023/03/03 12:07:36;;;;;;;27.83;18.63;;;;;11.40;94269.00;;;;7387086;19;20611;-75
2023/03/03 12:10:13;;;;;;;26.42;18.88;;;;;11.70;94253.00;;;;7390918;19;20583;-74
2023/03/03 12:13:02;;;;;;;28.85;19.55;;;;;12.20;94247.00;;;;7389685;19;20585;-74
2023/03/03 12:16:11;;;;;;;31.65;19.70;;;;;13.80;94245.00;;;;7389829;19;20636;-74
2023/03/03 12:18:47;;;;;;;25.50;19.48;;;;;15.10;94233.00;;;;7390351;19;20128;-75
2023/03/03 12:21:57;;;;;;;32.90;18.45;;;;;13.30;94251.00;;;;7387928;19;20125;-75
2023/03/03 12:24:53;;;;;;;26.75;19.10;;;;;13.10;94231.00;;;;7388448;19;20141;-74
2023/03/03 12:27:41;;;;;;;27.92;19.88;;;;;14.80;94214.00;;;;7381694;19;20524;-74
2023/03/03 12:30:23;;;;;;;24.85;17.88;;;;;15.70;94237.00;;;;7388413;19;20160;-74
2023/03/03 12:33:10;;;;;;;30.45;18.90;;;;;15.30;94235.00;;;;7389433;19;20483;-74
2023/03/03 12:35:52;;;;;;;26.27;19.33;;;;;15.90;94229.00;;;;7388558;19;20133;-74
2023/03/03 12:38:45;;;;;;;26.30;18.50;;;;;15.10;94239.00;;;;7388787;19;20132;-74
2023/03/03 12:41:22;;;;;;;25.20;18.95;;;;;14.40;94247.00;;;;7388686;19;20141;-75
2023/03/03 12:44:04;;;;;;;28.13;18.80;;;;;13.90;94249.00;;;;7396579;19;20149;-74
2023/03/03 12:47:19;;;;;;;26.23;19.10;;;;;12.90;94243.00;;;;7392461;19;20152;-74
2023/03/03 12:50:11;;;;;;;26.05;19.08;;;;;12.80;94249.00;;;;7395837;19;20136;-74
2023/03/03 12:53:10;;;;;;;25.70;19.90;;;;;12.80;94252.00;;;;7395378;19;20121;-74
2023/03/03 12:55:58;;;;;;;27.27;18.88;;;;;11.90;94257.00;;;;7392898;19;20615;-75
2023/03/03 12:58:55;;;;;;;28.05;19.10;;;;;11.50;94266.00;;;;7396356;19;20152;-75
2023/03/03 13:01:54;;;;;;;28.27;17.65;;;;;11.30;94260.00;;;;7395904;19;20196;-75
2023/03/03 13:04:58;;;;;;;28.67;19.35;;;;;11.40;94245.00;;;;7390417;19;20251;-75
2023/03/03 13:07:47;;;;;;;25.30;17.88;;;;;11.70;94241.00;;;;7394884;19;20576;-75